createdAt,value
2018-06-14T00:00:01.276Z,16.90
2018-06-14T00:01:01.280Z,16.96
2018-06-14T00:02:01.298Z,16.86
2018-06-14T00:03:01.287Z,16.90
2018-06-14T00:04:01.280Z,16.87
2018-06-14T00:05:01.281Z,16.90
2018-06-14T00:06:01.286Z,16.91
2018-06-14T00:07:01.282Z,16.91
2018-06-14T00:08:01.282Z,16.84
2018-06-14T00:09:01.283Z,16.86
2018-06-14T00:10:01.284Z,16.86
2018-06-14T00:11:01.291Z,16.89
2018-06-14T00:12:01.285Z,16.89
2018-06-14T00:13:01.286Z,16.90
2018-06-14T00:14:01.293Z,16.89
2018-06-14T00:15:01.288Z,16.93
2018-06-14T00:16:01.294Z,16.91
2018-06-14T00:17:01.289Z,16.89
2018-06-14T00:18:01.290Z,16.90
2018-06-14T00:19:01.294Z,16.89
2018-06-14T00:20:01.296Z,16.86
2018-06-14T00:21:01.292Z,16.89
2018-06-14T00:22:01.294Z,16.91
2018-06-14T00:23:01.293Z,16.86
2018-06-14T00:24:01.293Z,16.90
2018-06-14T00:25:01.294Z,16.89
2018-06-14T00:26:01.308Z,16.91
2018-06-14T00:27:01.300Z,16.91
2018-06-14T00:28:01.297Z,16.89
2018-06-14T00:29:01.300Z,16.91
2018-06-14T00:30:01.299Z,16.87
2018-06-14T00:31:01.304Z,16.87
2018-06-14T00:32:01.301Z,16.90
2018-06-14T00:33:01.300Z,16.84
2018-06-14T00:34:01.304Z,16.91
2018-06-14T00:35:01.314Z,16.87
2018-06-14T00:36:01.302Z,16.86
2018-06-14T00:37:01.305Z,16.84
2018-06-14T00:38:01.305Z,16.81
2018-06-14T00:39:01.305Z,16.81
2018-06-14T00:40:01.305Z,16.83
2018-06-14T00:41:01.309Z,16.84
2018-06-14T00:42:01.308Z,16.69
2018-06-14T00:43:01.312Z,16.74
2018-06-14T00:44:01.311Z,16.78
2018-06-14T00:45:01.319Z,16.78
2018-06-14T00:46:01.313Z,16.78
2018-06-14T00:47:01.312Z,16.75
2018-06-14T00:48:01.316Z,16.78
2018-06-14T00:49:01.314Z,16.74
2018-06-14T00:50:01.317Z,16.72
2018-06-14T00:51:01.318Z,16.72
2018-06-14T00:52:01.315Z,16.71
2018-06-14T00:53:01.319Z,16.72
2018-06-14T00:54:01.323Z,16.71
2018-06-14T00:55:01.320Z,16.66
2018-06-14T00:56:01.316Z,16.71
2018-06-14T00:57:01.318Z,16.71
2018-06-14T00:58:01.318Z,16.72
2018-06-14T00:59:01.326Z,16.71
2018-06-14T01:00:02.061Z,16.76
2018-06-14T01:01:01.321Z,16.71
2018-06-14T01:02:01.320Z,16.75
2018-06-14T01:03:01.323Z,16.68
2018-06-14T01:04:01.324Z,16.74
2018-06-14T01:05:01.324Z,16.68
2018-06-14T01:06:01.325Z,16.65
2018-06-14T01:07:01.370Z,16.68
2018-06-14T01:08:01.328Z,16.68
2018-06-14T01:09:01.326Z,16.72
2018-06-14T01:10:01.326Z,16.71
2018-06-14T01:11:01.335Z,16.69
2018-06-14T01:12:01.329Z,16.68
2018-06-14T01:13:01.331Z,16.68
2018-06-14T01:14:01.339Z,16.71
2018-06-14T01:15:01.336Z,16.75
2018-06-14T01:16:02.072Z,16.69
2018-06-14T01:17:01.335Z,16.74
2018-06-14T01:18:01.332Z,16.72
2018-06-14T01:19:01.333Z,16.76
2018-06-14T01:20:01.337Z,16.78
2018-06-14T01:21:01.338Z,16.68
2018-06-14T01:22:01.337Z,16.79
2018-06-14T01:23:01.337Z,16.76
2018-06-14T01:24:01.342Z,16.72
2018-06-14T01:25:01.338Z,16.69
2018-06-14T01:26:01.338Z,16.79
2018-06-14T01:27:01.339Z,16.74
2018-06-14T01:28:01.340Z,16.72
2018-06-14T01:29:01.340Z,16.71
2018-06-14T01:30:01.343Z,16.75
2018-06-14T01:31:01.344Z,16.68
2018-06-14T01:32:02.077Z,16.72
2018-06-14T01:33:01.342Z,16.71
2018-06-14T01:34:01.342Z,16.71
2018-06-14T01:35:01.347Z,16.75
2018-06-14T01:36:01.344Z,16.78
2018-06-14T01:37:01.348Z,16.74
2018-06-14T01:38:01.346Z,16.68
2018-06-14T01:39:01.350Z,16.76
2018-06-14T01:40:01.349Z,16.81
2018-06-14T01:41:01.348Z,16.71
2018-06-14T01:42:01.349Z,16.76
2018-06-14T01:43:01.349Z,16.75
2018-06-14T01:44:01.352Z,16.79
2018-06-14T01:45:01.351Z,16.83
2018-06-14T01:46:01.351Z,16.81
2018-06-14T01:47:01.359Z,16.83
2018-06-14T01:48:01.353Z,16.79
2018-06-14T01:49:01.357Z,16.83
2018-06-14T01:50:01.353Z,16.87
2018-06-14T01:51:01.355Z,16.83
2018-06-14T01:52:01.362Z,16.75
2018-06-14T01:53:01.390Z,16.76
2018-06-14T01:54:01.365Z,16.78
2018-06-14T01:55:01.362Z,16.76
2018-06-14T01:56:01.361Z,16.76
2018-06-14T01:57:01.362Z,16.69
2018-06-14T01:58:01.364Z,16.75
2018-06-14T01:59:01.360Z,16.72
2018-06-14T02:00:01.365Z,16.69
2018-06-14T02:01:01.363Z,16.71
2018-06-14T02:02:01.364Z,16.66
2018-06-14T02:03:01.363Z,16.68
2018-06-14T02:04:01.367Z,16.65
2018-06-14T02:05:02.083Z,16.60
2018-06-14T02:06:01.366Z,16.64
2018-06-14T02:07:01.365Z,16.58
2018-06-14T02:08:01.366Z,16.66
2018-06-14T02:09:01.371Z,16.66
2018-06-14T02:10:01.369Z,16.60
2018-06-14T02:11:01.370Z,16.71
2018-06-14T02:12:01.369Z,16.64
2018-06-14T02:13:01.379Z,16.68
2018-06-14T02:14:01.371Z,16.66
2018-06-14T02:15:01.377Z,16.57
2018-06-14T02:16:01.369Z,16.66
2018-06-14T02:17:01.376Z,16.64
2018-06-14T02:18:01.373Z,16.60
2018-06-14T02:19:01.375Z,16.60
2018-06-14T02:20:01.375Z,16.58
2018-06-14T02:21:02.089Z,16.53
2018-06-14T02:22:01.375Z,16.61
2018-06-14T02:23:01.376Z,16.56
2018-06-14T02:24:01.376Z,16.58
2018-06-14T02:25:01.378Z,16.49
2018-06-14T02:26:01.381Z,16.54
2018-06-14T02:27:01.379Z,16.54
2018-06-14T02:28:01.382Z,16.49
2018-06-14T02:29:01.383Z,16.47
2018-06-14T02:30:01.383Z,16.57
2018-06-14T02:31:01.390Z,16.61
2018-06-14T02:32:01.382Z,16.49
2018-06-14T02:33:01.383Z,16.60
2018-06-14T02:34:01.404Z,16.56
2018-06-14T02:35:01.388Z,16.53
2018-06-14T02:36:01.386Z,16.51
2018-06-14T02:37:02.094Z,16.53
2018-06-14T02:38:01.390Z,16.58
2018-06-14T02:39:01.394Z,16.56
2018-06-14T02:40:01.391Z,16.56
2018-06-14T02:41:01.389Z,16.56
2018-06-14T02:42:01.388Z,16.58
2018-06-14T02:43:01.389Z,16.50
2018-06-14T02:44:01.390Z,16.58
2018-06-14T02:45:01.389Z,16.54
2018-06-14T02:46:01.399Z,16.54
2018-06-14T02:47:01.392Z,16.60
2018-06-14T02:48:01.390Z,16.54
2018-06-14T02:49:01.391Z,16.58
2018-06-14T02:50:01.394Z,16.54
2018-06-14T02:51:01.398Z,16.60
2018-06-14T02:52:01.394Z,16.56
2018-06-14T02:53:02.102Z,16.58
2018-06-14T02:54:01.396Z,16.56
2018-06-14T02:55:01.399Z,16.53
2018-06-14T02:56:01.396Z,16.50
2018-06-14T02:57:01.401Z,16.53
2018-06-14T02:58:01.398Z,16.51
2018-06-14T02:59:01.400Z,16.47
2018-06-14T03:00:01.405Z,16.50
2018-06-14T03:01:01.399Z,16.50
2018-06-14T03:02:01.403Z,16.53
2018-06-14T03:03:01.405Z,16.50
2018-06-14T03:04:01.401Z,16.51
2018-06-14T03:05:01.401Z,16.46
2018-06-14T03:06:01.403Z,16.50
2018-06-14T03:07:01.409Z,16.49
2018-06-14T03:08:01.411Z,16.53
2018-06-14T03:09:01.404Z,16.54
2018-06-14T03:10:01.407Z,16.49
2018-06-14T03:11:01.406Z,16.47
2018-06-14T03:12:01.406Z,16.49
2018-06-14T03:13:01.411Z,16.54
2018-06-14T03:14:01.408Z,16.50
2018-06-14T03:15:01.407Z,16.49
2018-06-14T03:16:01.411Z,16.51
2018-06-14T03:17:01.412Z,16.49
2018-06-14T03:18:01.409Z,16.49
2018-06-14T03:19:01.412Z,16.50
2018-06-14T03:20:01.415Z,16.50
2018-06-14T03:21:01.414Z,16.51
2018-06-14T03:22:01.426Z,16.56
2018-06-14T03:23:01.414Z,16.49
2018-06-14T03:24:01.416Z,16.49
2018-06-14T03:25:02.112Z,16.43
2018-06-14T03:26:01.415Z,16.50
2018-06-14T03:27:01.416Z,16.49
2018-06-14T03:28:01.415Z,16.57
2018-06-14T03:29:01.417Z,16.57
2018-06-14T03:30:01.416Z,16.56
2018-06-14T03:31:01.419Z,16.57
2018-06-14T03:32:01.428Z,16.58
2018-06-14T03:33:01.418Z,16.54
2018-06-14T03:34:01.419Z,16.57
2018-06-14T03:35:01.423Z,16.51
2018-06-14T03:36:01.423Z,16.57
2018-06-14T03:37:01.424Z,16.50
2018-06-14T03:38:01.420Z,16.53
2018-06-14T03:39:01.420Z,16.54
2018-06-14T03:40:01.426Z,16.51
2018-06-14T03:41:02.116Z,16.51
2018-06-14T03:42:01.425Z,16.46
2018-06-14T03:43:01.425Z,16.46
2018-06-14T03:44:01.423Z,16.51
2018-06-14T03:45:01.425Z,16.49
2018-06-14T03:46:01.426Z,16.43
2018-06-14T03:47:01.436Z,16.51
2018-06-14T03:48:01.426Z,16.53
2018-06-14T03:49:01.428Z,16.50
2018-06-14T03:50:01.430Z,16.51
2018-06-14T03:51:01.431Z,16.47
2018-06-14T03:52:01.468Z,16.49
2018-06-14T03:53:01.436Z,16.51
2018-06-14T03:54:01.430Z,16.56
2018-06-14T03:55:01.436Z,16.51
2018-06-14T03:56:01.432Z,16.46
2018-06-14T03:57:02.115Z,16.54
2018-06-14T03:58:01.431Z,16.53
2018-06-14T03:59:01.438Z,16.57
2018-06-14T04:00:01.444Z,16.50
2018-06-14T04:01:01.433Z,16.54
2018-06-14T04:02:01.434Z,16.51
2018-06-14T04:03:01.435Z,16.54
2018-06-14T04:04:01.499Z,16.54
2018-06-14T04:05:01.437Z,16.61
2018-06-14T04:06:01.437Z,16.66
2018-06-14T04:07:01.439Z,16.71
2018-06-14T04:08:01.437Z,16.64
2018-06-14T04:09:01.438Z,16.64
2018-06-14T04:10:01.473Z,16.68
2018-06-14T04:11:01.441Z,16.66
2018-06-14T04:12:01.443Z,16.84
2018-06-14T04:13:02.117Z,16.71
2018-06-14T04:14:01.448Z,16.65
2018-06-14T04:15:01.443Z,16.79
2018-06-14T04:16:01.444Z,16.76
2018-06-14T04:17:01.443Z,16.72
2018-06-14T04:18:01.447Z,16.78
2018-06-14T04:19:01.447Z,16.69
2018-06-14T04:20:01.447Z,16.71
2018-06-14T04:21:01.448Z,16.72
2018-06-14T04:22:01.450Z,16.72
2018-06-14T04:23:01.451Z,16.69
2018-06-14T04:24:01.451Z,16.75
2018-06-14T04:25:01.450Z,16.78
2018-06-14T04:26:01.455Z,16.69
2018-06-14T04:27:01.452Z,16.71
2018-06-14T04:28:01.451Z,16.76
2018-06-14T04:29:01.452Z,16.84
2018-06-14T04:30:01.456Z,16.76
2018-06-14T04:31:01.454Z,16.71
2018-06-14T04:32:01.458Z,16.76
2018-06-14T04:33:01.457Z,16.79
2018-06-14T04:34:01.456Z,16.76
2018-06-14T04:35:01.456Z,16.81
2018-06-14T04:36:01.458Z,16.84
2018-06-14T04:37:01.466Z,16.83
2018-06-14T04:38:01.460Z,16.86
2018-06-14T04:39:01.459Z,16.86
2018-06-14T04:40:01.460Z,16.86
2018-06-14T04:41:01.461Z,16.89
2018-06-14T04:42:01.463Z,16.91
2018-06-14T04:43:01.464Z,16.89
2018-06-14T04:44:01.466Z,16.90
2018-06-14T04:45:01.464Z,16.94
2018-06-14T04:46:01.464Z,17.02
2018-06-14T04:47:01.466Z,16.96
2018-06-14T04:48:01.466Z,16.99
2018-06-14T04:49:01.467Z,17.02
2018-06-14T04:50:01.470Z,16.97
2018-06-14T04:51:01.469Z,17.05
2018-06-14T04:52:01.471Z,17.06
2018-06-14T04:53:01.472Z,17.01
2018-06-14T04:54:01.478Z,17.05
2018-06-14T04:55:01.478Z,17.11
2018-06-14T04:56:01.474Z,17.11
2018-06-14T04:57:01.483Z,17.02
2018-06-14T04:58:01.475Z,17.08
2018-06-14T04:59:01.476Z,17.14
2018-06-14T05:00:01.479Z,17.09
2018-06-14T05:01:01.479Z,17.09
2018-06-14T05:02:01.480Z,17.15
2018-06-14T05:03:01.479Z,17.14
2018-06-14T05:04:01.480Z,17.20
2018-06-14T05:05:01.480Z,17.09
2018-06-14T05:06:01.482Z,17.19
2018-06-14T05:07:01.484Z,17.16
2018-06-14T05:08:01.484Z,17.23
2018-06-14T05:09:01.489Z,17.22
2018-06-14T05:10:02.160Z,17.15
2018-06-14T05:11:01.488Z,17.29
2018-06-14T05:12:01.486Z,17.22
2018-06-14T05:13:01.504Z,17.26
2018-06-14T05:14:01.489Z,17.29
2018-06-14T05:15:01.493Z,17.29
2018-06-14T05:16:01.493Z,17.30
2018-06-14T05:17:01.492Z,17.27
2018-06-14T05:18:01.565Z,17.23
2018-06-14T05:19:01.501Z,17.31
2018-06-14T05:20:01.498Z,17.33
2018-06-14T05:21:01.493Z,17.33
2018-06-14T05:22:01.498Z,17.33
2018-06-14T05:23:01.500Z,17.33
2018-06-14T05:24:01.499Z,17.34
2018-06-14T05:25:01.500Z,17.33
2018-06-14T05:26:02.131Z,17.41
2018-06-14T05:27:01.502Z,17.39
2018-06-14T05:28:01.502Z,17.41
2018-06-14T05:29:01.503Z,17.39
2018-06-14T05:30:01.505Z,17.38
2018-06-14T05:31:01.505Z,17.52
2018-06-14T05:32:01.517Z,17.51
2018-06-14T05:33:01.513Z,17.48
2018-06-14T05:34:01.510Z,17.59
2018-06-14T05:35:01.511Z,17.46
2018-06-14T05:36:01.516Z,17.48
2018-06-14T05:37:01.516Z,17.57
2018-06-14T05:38:01.513Z,17.64
2018-06-14T05:39:01.515Z,17.63
2018-06-14T05:40:01.522Z,17.56
2018-06-14T05:41:01.518Z,17.60
2018-06-14T05:42:02.140Z,17.54
2018-06-14T05:43:01.519Z,17.59
2018-06-14T05:44:01.522Z,17.63
2018-06-14T05:45:01.528Z,17.63
2018-06-14T05:46:01.523Z,17.59
2018-06-14T05:47:01.525Z,17.67
2018-06-14T05:48:01.529Z,17.68
2018-06-14T05:49:01.534Z,17.71
2018-06-14T05:50:01.531Z,17.67
2018-06-14T05:51:01.529Z,17.68
2018-06-14T05:52:01.529Z,17.74
2018-06-14T05:53:01.532Z,17.70
2018-06-14T05:54:01.535Z,17.78
2018-06-14T05:55:01.534Z,17.72
2018-06-14T05:56:01.549Z,17.74
2018-06-14T05:57:01.540Z,17.79
2018-06-14T05:58:02.143Z,17.89
2018-06-14T05:59:01.538Z,17.87
2018-06-14T06:00:01.541Z,17.97
2018-06-14T06:01:01.542Z,18.00
2018-06-14T06:02:01.545Z,17.92
2018-06-14T06:03:01.547Z,18.03
2018-06-14T06:04:01.548Z,18.08
2018-06-14T06:05:01.549Z,18.08
2018-06-14T06:06:01.550Z,18.10
2018-06-14T06:07:01.551Z,18.19
2018-06-14T06:08:01.554Z,18.16
2018-06-14T06:09:01.556Z,18.33
2018-06-14T06:10:01.554Z,18.25
2018-06-14T06:11:01.563Z,18.23
2018-06-14T06:12:01.609Z,18.25
2018-06-14T06:13:01.560Z,18.23
2018-06-14T06:14:01.561Z,18.29
2018-06-14T06:15:01.570Z,18.38
2018-06-14T06:16:01.563Z,18.35
2018-06-14T06:17:01.566Z,18.34
2018-06-14T06:18:01.569Z,18.38
2018-06-14T06:19:01.568Z,18.47
2018-06-14T06:20:01.574Z,18.53
2018-06-14T06:21:01.580Z,18.59
2018-06-14T06:22:01.588Z,18.55
2018-06-14T06:23:02.141Z,18.59
2018-06-14T06:24:01.578Z,18.63
2018-06-14T06:25:01.580Z,18.68
2018-06-14T06:26:01.595Z,18.56
2018-06-14T06:27:01.586Z,18.73
2018-06-14T06:28:01.583Z,18.77
2018-06-14T06:29:01.812Z,18.71
2018-06-14T06:30:02.972Z,18.78
2018-06-14T06:31:01.762Z,18.75
2018-06-14T06:32:01.624Z,18.78
2018-06-14T06:33:01.592Z,18.77
2018-06-14T06:34:01.600Z,18.77
2018-06-14T06:35:01.599Z,18.81
2018-06-14T06:36:01.601Z,18.86
2018-06-14T06:37:01.763Z,18.95
2018-06-14T06:38:02.403Z,18.93
2018-06-14T06:39:01.641Z,18.96
2018-06-14T06:40:01.608Z,19.07
2018-06-14T06:41:02.162Z,19.07
2018-06-14T06:42:01.612Z,19.11
2018-06-14T06:43:01.615Z,19.11
2018-06-14T06:44:01.615Z,19.15
2018-06-14T06:45:01.664Z,19.14
2018-06-14T06:46:01.620Z,19.12
2018-06-14T06:47:01.623Z,19.22
2018-06-14T06:48:01.625Z,19.19
2018-06-14T06:49:01.627Z,19.19
2018-06-14T06:50:01.631Z,19.16
2018-06-14T06:51:01.631Z,19.19
2018-06-14T06:52:01.632Z,19.30
2018-06-14T06:53:01.664Z,19.33
2018-06-14T06:54:01.649Z,19.30
2018-06-14T06:55:01.643Z,19.39
2018-06-14T06:56:01.643Z,19.36
2018-06-14T06:57:01.648Z,19.41
2018-06-14T06:58:01.648Z,19.55
2018-06-14T06:59:02.466Z,19.49
2018-06-14T07:00:01.661Z,19.47
2018-06-14T07:01:01.654Z,19.48
2018-06-14T07:02:01.677Z,19.59
2018-06-14T07:03:01.683Z,19.52
2018-06-14T07:04:01.666Z,19.66
2018-06-14T07:05:01.665Z,19.66
2018-06-14T07:06:02.715Z,19.79
2018-06-14T07:07:01.673Z,19.66
2018-06-14T07:08:01.672Z,19.77
2018-06-14T07:09:01.676Z,19.77
2018-06-14T07:10:01.683Z,19.69
2018-06-14T07:11:01.688Z,19.70
2018-06-14T07:12:01.748Z,19.76
2018-06-14T07:13:01.692Z,19.71
2018-06-14T07:14:01.688Z,19.74
2018-06-14T07:15:01.692Z,19.74
2018-06-14T07:16:02.295Z,19.74
2018-06-14T07:17:01.696Z,19.67
2018-06-14T07:18:01.699Z,19.69
2018-06-14T07:19:01.705Z,19.79
2018-06-14T07:20:01.707Z,19.86
2018-06-14T07:21:02.254Z,19.85
2018-06-14T07:22:01.724Z,19.84
2018-06-14T07:23:01.716Z,19.89
2018-06-14T07:24:01.719Z,19.85
2018-06-14T07:25:01.937Z,19.85
2018-06-14T07:26:01.721Z,19.86
2018-06-14T07:27:01.728Z,19.94
2018-06-14T07:28:01.731Z,19.92
2018-06-14T07:29:01.733Z,19.96
2018-06-14T07:30:01.743Z,19.95
2018-06-14T07:31:02.674Z,19.94
2018-06-14T07:32:01.741Z,19.89
2018-06-14T07:33:01.756Z,20.04
2018-06-14T07:34:01.747Z,19.94
2018-06-14T07:35:01.780Z,19.92
2018-06-14T07:36:01.750Z,19.79
2018-06-14T07:37:01.753Z,19.77
2018-06-14T07:38:01.755Z,19.74
2018-06-14T07:39:01.796Z,19.84
2018-06-14T07:40:01.762Z,19.82
2018-06-14T07:41:01.764Z,19.88
2018-06-14T07:42:01.769Z,20.02
2018-06-14T07:43:01.794Z,19.96
2018-06-14T07:44:01.780Z,20.03
2018-06-14T07:45:01.776Z,20.07
2018-06-14T07:46:01.795Z,20.18
2018-06-14T07:47:01.782Z,20.11
2018-06-14T07:48:01.788Z,20.06
2018-06-14T07:49:01.783Z,20.10
2018-06-14T07:50:01.790Z,20.13
2018-06-14T07:51:01.797Z,19.96
2018-06-14T07:52:01.796Z,20.02
2018-06-14T07:53:01.799Z,20.06
2018-06-14T07:54:01.801Z,19.99
2018-06-14T07:55:01.804Z,20.06
2018-06-14T07:56:01.806Z,20.04
2018-06-14T07:57:01.812Z,19.92
2018-06-14T07:58:01.813Z,20.03
2018-06-14T07:59:01.814Z,20.03
2018-06-14T08:00:01.853Z,20.13
2018-06-14T08:01:01.887Z,20.18
2018-06-14T08:02:01.850Z,20.22
2018-06-14T08:03:01.833Z,20.40
2018-06-14T08:04:02.018Z,20.39
2018-06-14T08:05:02.011Z,20.51
2018-06-14T08:06:01.864Z,20.50
2018-06-14T08:07:02.093Z,20.47
2018-06-14T08:08:02.764Z,20.43
2018-06-14T08:09:01.850Z,20.41
2018-06-14T08:10:01.851Z,20.43
2018-06-14T08:11:01.890Z,20.44
2018-06-14T08:12:02.124Z,20.43
2018-06-14T08:13:01.856Z,20.37
2018-06-14T08:15:02.052Z,20.37
2018-06-14T08:16:01.864Z,20.37
2018-06-14T08:17:01.869Z,20.40
2018-06-14T08:18:01.894Z,20.36
2018-06-14T08:19:01.876Z,20.34
2018-06-14T08:20:01.877Z,20.36
2018-06-14T08:21:02.773Z,20.47
2018-06-14T08:22:01.891Z,20.31
2018-06-14T08:23:01.887Z,20.40
2018-06-14T08:24:02.090Z,20.36
2018-06-14T08:25:03.069Z,20.36
2018-06-14T08:26:01.897Z,20.34
2018-06-14T08:27:01.903Z,20.29
2018-06-14T08:28:01.997Z,20.36
2018-06-14T08:29:01.930Z,20.29
2018-06-14T08:30:01.904Z,20.31
2018-06-14T08:31:01.910Z,20.22
2018-06-14T08:32:01.911Z,20.21
2018-06-14T08:33:01.914Z,20.18
2018-06-14T08:34:01.918Z,20.13
2018-06-14T08:35:01.922Z,20.11
2018-06-14T08:36:01.923Z,20.14
2018-06-14T08:37:01.929Z,20.00
2018-06-14T08:38:01.969Z,20.04
2018-06-14T08:39:01.930Z,20.07
2018-06-14T08:40:01.939Z,20.04
2018-06-14T08:41:02.028Z,20.10
2018-06-14T08:42:01.956Z,20.11
2018-06-14T08:43:01.956Z,20.18
2018-06-14T08:44:01.949Z,20.14
2018-06-14T08:45:01.950Z,20.16
2018-06-14T08:46:02.784Z,20.24
2018-06-14T08:47:01.954Z,20.29
2018-06-14T08:48:01.958Z,20.37
2018-06-14T08:49:01.962Z,20.47
2018-06-14T08:50:01.962Z,20.44
2018-06-14T08:51:01.967Z,20.40
2018-06-14T08:52:01.971Z,20.51
2018-06-14T08:53:01.972Z,20.50
2018-06-14T08:54:01.975Z,20.62
2018-06-14T08:55:01.977Z,20.67
2018-06-14T08:56:01.982Z,20.72
2018-06-14T08:57:02.003Z,20.85
2018-06-14T08:58:01.988Z,20.97
2018-06-14T08:59:01.990Z,20.95
2018-06-14T09:00:01.993Z,20.97
2018-06-14T09:01:01.998Z,21.03
2018-06-14T09:02:02.781Z,21.03
2018-06-14T09:03:02.044Z,21.00
2018-06-14T09:04:02.009Z,21.12
2018-06-14T09:05:02.012Z,21.24
2018-06-14T09:06:02.051Z,21.36
2018-06-14T09:07:02.035Z,21.45
2018-06-14T09:08:02.020Z,21.46
2018-06-14T09:09:02.023Z,21.39
2018-06-14T09:10:02.055Z,21.36
2018-06-14T09:11:02.028Z,21.40
2018-06-14T09:12:02.036Z,21.37
2018-06-14T09:13:02.035Z,21.32
2018-06-14T09:14:02.039Z,21.39
2018-06-14T09:15:02.057Z,21.36
2018-06-14T09:16:02.048Z,21.45
2018-06-14T09:17:02.053Z,21.62
2018-06-14T09:18:02.053Z,21.69
2018-06-14T09:19:02.784Z,21.58
2018-06-14T09:20:02.060Z,21.72
2018-06-14T09:21:02.068Z,21.77
2018-06-14T09:22:02.070Z,21.80
2018-06-14T09:23:02.081Z,21.72
2018-06-14T09:24:02.077Z,21.77
2018-06-14T09:25:02.082Z,21.72
2018-06-14T09:26:02.084Z,21.76
2018-06-14T09:27:02.086Z,21.73
2018-06-14T09:28:02.090Z,21.76
2018-06-14T09:29:02.096Z,21.77
2018-06-14T09:30:02.100Z,22.17
2018-06-14T09:31:02.114Z,23.37
2018-06-14T09:32:02.144Z,24.51
2018-06-14T09:33:02.114Z,25.63
2018-06-14T09:34:02.115Z,26.62
2018-06-14T09:35:02.121Z,27.63
2018-06-14T09:36:02.130Z,28.49
2018-06-14T09:37:02.245Z,29.16
2018-06-14T09:38:02.137Z,29.63
2018-06-14T09:39:02.143Z,29.76
2018-06-14T09:40:02.162Z,29.38
2018-06-14T09:41:02.157Z,28.74
2018-06-14T09:42:02.162Z,28.41
2018-06-14T09:43:02.283Z,27.64
2018-06-14T09:44:02.178Z,26.99
2018-06-14T09:45:02.396Z,26.71
2018-06-14T09:46:02.477Z,26.26
2018-06-14T09:47:02.326Z,25.84
2018-06-14T09:48:02.234Z,25.51
2018-06-14T09:49:02.233Z,25.65
2018-06-14T09:50:02.219Z,25.32
2018-06-14T09:51:02.284Z,24.91
2018-06-14T09:52:02.229Z,24.66
2018-06-14T09:53:02.402Z,24.53
2018-06-14T09:54:02.262Z,24.40
2018-06-14T09:55:02.249Z,24.29
2018-06-14T09:56:02.255Z,24.18
2018-06-14T09:57:02.259Z,24.73
2018-06-14T09:58:02.266Z,25.29
2018-06-14T09:59:02.277Z,26.06
2018-06-14T10:00:02.281Z,27.18
2018-06-14T10:01:02.296Z,27.17
2018-06-14T10:02:02.293Z,27.48
2018-06-14T10:03:02.321Z,28.44
2018-06-14T10:04:02.307Z,28.88
2018-06-14T10:05:02.315Z,29.63
2018-06-14T10:06:02.349Z,30.16
2018-06-14T10:07:02.330Z,30.31
2018-06-14T10:08:02.335Z,30.54
2018-06-14T10:09:02.342Z,30.51
2018-06-14T10:10:02.351Z,29.79
2018-06-14T10:11:02.358Z,29.13
2018-06-14T10:12:02.366Z,28.49
2018-06-14T10:13:02.404Z,28.48
2018-06-14T10:14:04.888Z,28.81
2018-06-14T10:15:02.441Z,28.30
2018-06-14T10:16:02.399Z,27.83
2018-06-14T10:17:02.406Z,28.60
2018-06-14T10:18:03.006Z,28.85
2018-06-14T10:19:02.443Z,29.23
2018-06-14T10:20:02.432Z,29.36
2018-06-14T10:21:02.440Z,30.06
2018-06-14T10:22:02.453Z,30.37
2018-06-14T10:23:02.458Z,30.10
2018-06-14T10:24:02.472Z,29.76
2018-06-14T10:25:02.479Z,29.65
2018-06-14T10:26:02.490Z,29.50
2018-06-14T10:27:02.494Z,29.84
2018-06-14T10:28:02.501Z,30.35
2018-06-14T10:29:02.529Z,30.85
2018-06-14T10:30:02.524Z,30.88
2018-06-14T10:31:02.532Z,30.84
2018-06-14T10:32:02.538Z,30.55
2018-06-14T10:33:02.548Z,30.96
2018-06-14T10:34:02.559Z,31.07
2018-06-14T10:35:03.316Z,31.74
2018-06-14T10:36:02.575Z,32.46
2018-06-14T10:37:02.587Z,32.93
2018-06-14T10:38:02.594Z,33.24
2018-06-14T10:39:02.606Z,33.32
2018-06-14T10:40:02.616Z,33.52
2018-06-14T10:41:02.679Z,33.69
2018-06-14T10:42:02.637Z,33.69
2018-06-14T10:43:02.665Z,33.65
2018-06-14T10:44:03.328Z,33.40
2018-06-14T10:45:02.669Z,33.20
2018-06-14T10:46:02.696Z,32.93
2018-06-14T10:47:02.854Z,33.00
2018-06-14T10:48:02.703Z,32.95
2018-06-14T10:49:02.717Z,32.95
2018-06-14T10:50:02.728Z,32.86
2018-06-14T10:51:02.745Z,33.05
2018-06-14T10:52:02.790Z,33.34
2018-06-14T10:53:02.760Z,33.42
2018-06-14T10:54:02.773Z,33.64
2018-06-14T10:55:02.786Z,33.89
2018-06-14T10:56:03.412Z,33.73
2018-06-14T10:57:02.812Z,33.74
2018-06-14T10:58:03.459Z,33.55
2018-06-14T10:59:02.833Z,33.55
2018-06-14T11:00:02.847Z,33.71
2018-06-14T11:01:03.832Z,33.86
2018-06-14T11:02:04.055Z,34.10
2018-06-14T11:03:02.881Z,34.47
2018-06-14T11:04:02.898Z,34.70
2018-06-14T11:05:02.906Z,34.52
2018-06-14T11:06:02.987Z,35.17
2018-06-14T11:07:02.936Z,35.68
2018-06-14T11:08:02.947Z,36.25
2018-06-14T11:09:03.926Z,36.36
2018-06-14T11:10:03.862Z,36.30
2018-06-14T11:11:02.984Z,36.49
2018-06-14T11:12:03.000Z,36.46
2018-06-14T11:13:03.010Z,36.37
2018-06-14T11:14:03.025Z,36.36
2018-06-14T11:15:03.040Z,36.68
2018-06-14T11:16:03.069Z,36.51
2018-06-14T11:17:03.094Z,36.59
2018-06-14T11:18:03.080Z,36.67
2018-06-14T11:19:03.094Z,36.58
2018-06-14T11:20:03.849Z,36.65
2018-06-14T11:21:03.193Z,37.13
2018-06-14T11:22:03.177Z,37.49
2018-06-14T11:23:03.161Z,37.70
2018-06-14T11:24:03.173Z,37.97
2018-06-14T11:25:03.182Z,38.24
2018-06-14T11:26:03.195Z,38.20
2018-06-14T11:27:03.238Z,37.64
2018-06-14T11:28:03.251Z,37.13
2018-06-14T11:29:03.253Z,37.36
2018-06-14T11:30:03.983Z,37.86
2018-06-14T11:31:03.269Z,37.87
2018-06-14T11:32:03.284Z,37.78
2018-06-14T11:33:03.301Z,37.63
2018-06-14T11:34:03.931Z,37.68
2018-06-14T11:35:03.335Z,37.68
2018-06-14T11:36:09.935Z,37.80
2018-06-14T11:37:03.519Z,37.96
2018-06-14T11:38:03.932Z,38.05
2018-06-14T11:39:03.425Z,38.09
2018-06-14T11:40:03.406Z,38.09
2018-06-14T11:41:03.420Z,38.06
2018-06-14T11:42:04.437Z,38.26
2018-06-14T11:43:03.852Z,38.48
2018-06-14T11:44:03.469Z,38.77
2018-06-14T11:45:03.490Z,38.60
2018-06-14T11:46:03.500Z,38.55
2018-06-14T11:47:03.515Z,38.48
2018-06-14T11:48:03.530Z,38.24
2018-06-14T11:49:03.544Z,38.54
2018-06-14T11:50:03.584Z,38.79
2018-06-14T11:51:03.599Z,39.21
2018-06-14T11:52:04.440Z,39.41
2018-06-14T11:53:03.610Z,39.40
2018-06-14T11:54:03.627Z,39.41
2018-06-14T11:55:03.644Z,39.12
2018-06-14T11:56:04.374Z,39.06
2018-06-14T11:57:04.369Z,38.76
2018-06-14T11:58:03.695Z,38.55
2018-06-14T11:59:03.709Z,38.15
2018-06-14T12:00:03.727Z,37.96
2018-06-14T12:01:03.745Z,37.68
2018-06-14T12:02:03.764Z,37.68
2018-06-14T12:03:03.772Z,37.70
2018-06-14T12:04:03.794Z,37.53
2018-06-14T12:05:03.810Z,37.64
2018-06-14T12:06:04.386Z,37.53
2018-06-14T12:07:03.836Z,37.51
2018-06-14T12:08:03.852Z,37.56
2018-06-14T12:09:03.870Z,37.64
2018-06-14T12:10:03.886Z,38.12
2018-06-14T12:11:03.915Z,38.54
2018-06-14T12:12:18.629Z,38.80
2018-06-14T12:13:03.935Z,39.37
2018-06-14T12:14:03.950Z,39.75
2018-06-14T12:15:04.028Z,39.37
2018-06-14T12:16:04.872Z,38.91
2018-06-14T12:17:04.953Z,38.74
2018-06-14T12:18:04.023Z,38.83
2018-06-14T12:19:04.034Z,39.00
2018-06-14T12:20:04.047Z,39.00
2018-06-14T12:21:04.066Z,39.07
2018-06-14T12:22:04.081Z,39.11
2018-06-14T12:23:04.957Z,38.36
2018-06-14T12:24:04.128Z,38.06
2018-06-14T12:25:04.133Z,38.27
2018-06-14T12:26:04.147Z,38.45
2018-06-14T12:27:04.164Z,38.82
2018-06-14T12:28:04.181Z,39.03
2018-06-14T12:29:04.193Z,38.89
2018-06-14T12:30:04.217Z,38.71
2018-06-14T12:31:04.231Z,38.55
2018-06-14T12:32:04.245Z,38.43
2018-06-14T12:33:04.257Z,38.27
2018-06-14T12:34:04.302Z,37.96
2018-06-14T12:35:04.288Z,38.01
2018-06-14T12:36:04.303Z,38.08
2018-06-14T12:37:04.483Z,38.48
2018-06-14T12:38:04.368Z,38.91
2018-06-14T12:39:04.358Z,39.33
2018-06-14T12:40:04.381Z,39.53
2018-06-14T12:41:04.463Z,39.58
2018-06-14T12:42:04.399Z,39.87
2018-06-14T12:43:04.416Z,40.14
2018-06-14T12:44:04.433Z,40.21
2018-06-14T12:45:04.458Z,40.30
2018-06-14T12:46:04.463Z,40.56
2018-06-14T12:47:04.479Z,40.16
2018-06-14T12:48:04.495Z,39.90
2018-06-14T12:49:04.509Z,39.71
2018-06-14T12:50:04.535Z,39.77
2018-06-14T12:51:04.548Z,39.41
2018-06-14T12:52:04.556Z,39.19
2018-06-14T12:53:04.577Z,38.84